Time;durP1;ratioP1;P1;durP2;ratioP2;P2;SDS_P1;SDS_P2;PMS_P1;PMS_P2;Temp;Humidity;BMP_temperature;BMP_pressure;BME280_temperature;BME280_humidity;BME280_pressure;Samples;Min_cycle;Max_cycle;Signal;HPM_P1;HPM_P2
2022/06/15 00:00:56;;;;;;;4.37;1.97;;;19.00;75.50;;;19.39;50.82;95313.66;5069338;28;20474;-53
2022/06/15 00:03:24;;;;;;;8.27;1.90;;;19.00;75.20;;;19.37;49.97;95316.50;5077622;28;20485;-55
2022/06/15 00:05:52;;;;;;;3.40;2.10;;;19.00;74.50;;;19.36;50.22;95314.84;5072695;28;20489;-54
2022/06/15 00:08:20;;;;;;;3.27;1.40;;;19.00;74.80;;;19.35;50.26;95315.88;5078954;28;20454;-55
2022/06/15 00:10:48;;;;;;;2.50;1.80;;;18.90;74.70;;;19.34;50.19;95304.34;5080162;28;20486;-53
2022/06/15 00:13:17;;;;;;;12.97;1.77;;;19.00;74.80;;;19.34;50.39;95300.88;5069253;28;20458;-55
2022/06/15 00:15:48;;;;;;;3.63;1.60;;;18.90;74.80;;;19.32;50.58;95306.38;5073509;28;20604;-55
2022/06/15 00:18:15;;;;;;;1.77;1.63;;;18.90;74.70;;;19.32;50.62;95303.72;5069943;28;20450;-53
2022/06/15 00:20:42;;;;;;;3.03;1.50;;;18.90;74.70;;;19.31;50.37;95304.72;5071710;28;20507;-55
2022/06/15 00:23:11;;;;;;;5.17;1.90;;;18.90;74.60;;;19.31;50.25;95296.72;5075440;28;20806;-55
2022/06/15 00:25:38;;;;;;;5.17;1.80;;;18.90;74.60;;;19.31;49.99;95296.72;5075983;28;20471;-55
2022/06/15 00:28:06;;;;;;;3.10;1.90;;;18.90;73.80;;;19.28;49.77;95297.09;5077458;28;20958;-55
2022/06/15 00:30:33;;;;;;;2.10;1.90;;;18.90;73.90;;;19.30;50.02;95302.25;5080733;28;20470;-54
2022/06/15 00:33:00;;;;;;;1.23;1.13;;;18.90;74.00;;;19.30;50.26;95299.56;5063811;28;20451;-53
2022/06/15 00:35:28;;;;;;;2.37;1.50;;;18.90;73.60;;;19.28;49.87;95293.59;5075050;28;20494;-53
2022/06/15 00:37:55;;;;;;;5.63;1.73;;;18.90;73.60;;;19.27;50.03;95299.94;5072801;28;20455;-54
2022/06/15 00:40:24;;;;;;;1.70;1.50;;;18.90;73.00;;;19.24;49.56;95301.16;5076238;28;20490;-53
2022/06/15 00:42:51;;;;;;;2.07;1.70;;;18.80;72.90;;;19.22;49.07;95300.50;5082414;28;20454;-54
2022/06/15 00:45:18;;;;;;;2.30;1.57;;;18.80;72.10;;;19.21;49.53;95301.53;5075193;28;20470;-56
2022/06/15 00:47:46;;;;;;;2.20;2.10;;;18.80;72.90;;;19.18;50.06;95299.22;5075483;28;20457;-54
2022/06/15 00:50:17;;;;;;;3.10;1.50;;;18.80;72.90;;;19.17;49.91;95305.56;5069344;28;20471;-55
2022/06/15 00:52:48;;;;;;;3.53;1.53;;;18.80;73.00;;;19.15;50.11;95307.56;5072500;28;20486;-56
2022/06/15 00:55:19;;;;;;;2.37;2.17;;;18.70;73.10;;;19.12;50.15;95305.28;5075106;28;20490;-53
2022/06/15 00:57:47;;;;;;;2.00;1.90;;;18.70;73.10;;;19.10;49.75;95304.63;5065215;28;20461;-56
2022/06/15 01:00:15;;;;;;;1.60;1.50;;;18.70;73.40;;;19.09;50.09;95308.31;5077333;28;20482;-54
2022/06/15 01:02:43;;;;;;;1.67;1.57;;;18.70;73.40;;;19.07;50.51;95307.63;5079140;28;20454;-56
2022/06/15 01:05:13;;;;;;;4.40;1.83;;;18.70;73.50;;;19.07;50.53;95312.97;5074854;28;20485;-54
2022/06/15 01:08:16;;;;;;;3.77;2.10;;;18.70;73.70;;;19.03;50.60;95309.84;5074969;28;20466;-55
2022/06/15 01:11:17;;;;;;;3.80;1.93;;;18.60;73.90;;;19.01;50.59;95316.38;5070299;28;21094;-54
2022/06/15 01:14:08;;;;;;;4.67;1.90;;;18.60;73.70;;;18.96;50.42;95317.75;5076709;28;20465;-53
2022/06/15 01:16:40;;;;;;;2.20;1.90;;;18.60;74.40;;;18.92;50.57;95313.78;5064872;28;20910;-55
2022/06/15 01:19:34;;;;;;;2.00;1.80;;;18.50;74.40;;;18.89;51.14;95314.16;5076424;28;21001;-55
2022/06/15 01:22:09;;;;;;;3.07;2.10;;;18.50;74.50;;;18.85;50.66;95314.69;5079433;28;20465;-54
2022/06/15 01:25:13;;;;;;;1.70;1.60;;;18.50;74.70;;;18.80;51.08;95317.84;5069574;28;20502;-56
2022/06/15 01:28:29;;;;;;;2.17;2.07;;;18.40;74.50;;;18.77;51.11;95318.22;5070750;28;20441;-54
2022/06/15 01:31:00;;;;;;;3.63;1.60;;;18.40;74.50;;;18.73;51.39;95327.56;5048942;28;20487;-53
2022/06/15 01:33:36;;;;;;;3.57;1.90;;;18.40;74.80;;;18.71;51.43;95321.59;5075415;28;20457;-54
2022/06/15 01:36:13;;;;;;;2.83;1.60;;;18.30;75.00;;;18.68;51.18;95319.28;5070397;28;21121;-52
2022/06/15 01:38:46;;;;;;;6.30;1.80;;;18.30;74.90;;;18.65;51.45;95323.13;5073538;28;20445;-56
2022/06/15 01:41:18;;;;;;;4.87;2.00;;;18.30;74.80;;;18.60;50.97;95321.00;5071568;28;20688;-56
2022/06/15 01:43:53;;;;;;;3.23;2.10;;;18.20;74.70;;;18.58;51.05;95327.53;5077716;28;20456;-54
2022/06/15 01:46:22;;;;;;;2.70;2.00;;;18.20;74.80;;;18.53;51.17;95328.06;5061868;28;20517;-56
2022/06/15 01:48:51;;;;;;;2.13;1.97;;;18.20;74.70;;;18.52;51.16;95329.06;5073496;28;20458;-52
2022/06/15 01:51:22;;;;;;;3.47;2.03;;;18.10;74.90;;;18.49;50.79;95324.09;5076933;28;20486;-55
2022/06/15 01:53:52;;;;;;;3.93;1.80;;;18.10;74.50;;;18.46;51.36;95324.44;5075442;28;20458;-56
2022/06/15 01:56:22;;;;;;;1.70;1.57;;;18.10;74.60;;;18.43;51.25;95324.81;5068335;28;20525;-53
2022/06/15 01:58:58;;;;;;;8.63;1.90;;;18.10;74.50;;;18.43;50.70;95314.16;5072220;28;20865;-55
2022/06/15 02:01:33;;;;;;;4.03;2.23;;;18.00;74.20;;;18.40;50.95;95326.00;5074231;28;20473;-56
2022/06/15 02:04:06;;;;;;;2.97;1.87;;;18.00;74.00;;;18.40;51.05;95331.34;5069802;28;20469;-53
2022/06/15 02:06:39;;;;;;;5.90;1.97;;;18.00;73.80;;;18.38;50.63;95324.50;5066745;28;20498;-54
2022/06/15 02:09:12;;;;;;;2.87;1.97;;;18.00;73.80;;;18.38;50.44;95332.50;5072260;28;20882;-53
2022/06/15 02:11:40;;;;;;;2.63;1.83;;;18.00;73.80;;;18.36;50.67;95327.34;5063034;28;20443;-53
2022/06/15 02:14:11;;;;;;;3.80;1.50;;;18.00;73.90;;;18.36;50.64;95334.53;5073716;28;20450;-53
2022/06/15 02:16:42;;;;;;;3.43;2.17;;;18.00;73.80;;;18.37;51.01;95336.16;5073683;28;20509;-53
2022/06/15 02:19:14;;;;;;;4.20;1.60;;;18.00;74.00;;;18.36;50.68;95334.53;5075411;28;20861;-53
2022/06/15 02:21:43;;;;;;;3.20;1.60;;;18.00;74.20;;;18.35;50.89;95333.69;5063710;28;20494;-55
2022/06/15 02:24:10;;;;;;;3.00;2.40;;;18.00;73.80;;;18.35;50.30;95333.69;5072880;28;20873;-55
2022/06/15 02:26:38;;;;;;;2.20;2.10;;;18.00;73.80;;;18.33;50.71;95333.03;5076822;28;20478;-54
2022/06/15 02:29:07;;;;;;;2.60;2.40;;;18.00;73.80;;;18.32;50.61;95330.53;5069438;28;20447;-54
2022/06/15 02:31:35;;;;;;;2.10;2.00;;;18.00;74.10;;;18.31;50.72;95329.72;5080153;28;20595;-53
2022/06/15 02:34:04;;;;;;;2.03;1.80;;;17.90;74.10;;;18.29;50.64;95337.03;5078635;28;20462;-55
2022/06/15 02:36:32;;;;;;;1.93;1.57;;;17.90;74.30;;;18.27;51.39;95326.56;5071352;28;20497;-54
2022/06/15 02:38:59;;;;;;;3.27;2.10;;;17.90;74.50;;;18.25;50.86;95333.91;5072467;28;20475;-54
2022/06/15 02:41:27;;;;;;;2.70;1.60;;;17.90;74.70;;;18.23;51.06;95324.44;5072866;28;21018;-53
2022/06/15 02:43:56;;;;;;;3.50;2.23;;;17.90;74.80;;;18.21;51.54;95327.28;5081119;28;20458;-53
2022/06/15 02:46:23;;;;;;;3.17;1.83;;;17.80;75.00;;;18.20;51.39;95330.09;5066554;28;20764;-55
2022/06/15 02:48:50;;;;;;;2.40;2.03;;;17.80;75.30;;;18.16;51.71;95332.31;5071044;28;20452;-55
2022/06/15 02:51:23;;;;;;;5.63;1.90;;;17.80;75.30;;;18.14;51.88;95331.66;5078447;28;20478;-52
2022/06/15 02:53:52;;;;;;;3.10;1.90;;;17.80;75.30;;;18.10;51.87;95331.16;5080718;28;21005;-55
2022/06/15 02:56:19;;;;;;;6.80;2.60;;;17.70;75.50;;;18.06;51.98;95324.56;5073272;28;20491;-54
2022/06/15 02:58:49;;;;;;;2.53;2.03;;;17.70;75.60;;;18.03;51.61;95330.22;5072045;28;20458;-56
2022/06/15 03:01:16;;;;;;;6.63;2.47;;;17.70;75.60;;;17.99;51.56;95326.25;5073854;28;20540;-56
2022/06/15 03:03:44;;;;;;;11.87;2.70;;;17.60;75.60;;;17.96;52.10;95326.59;5083790;28;20454;-52
2022/06/15 03:06:12;;;;;;;6.30;2.00;;;17.60;75.70;;;17.92;51.77;95336.75;5075890;28;20502;-52
2022/06/15 03:08:40;;;;;;;3.30;2.23;;;17.60;75.80;;;17.90;52.18;95340.59;5079778;28;20822;-55
2022/06/15 03:11:08;;;;;;;6.20;2.10;;;17.50;76.10;;;17.86;51.87;95334.75;5077896;28;20474;-55
2022/06/15 03:13:35;;;;;;;2.70;2.10;;;17.50;75.90;;;17.83;52.29;95327.13;5074528;28;20450;-55
2022/06/15 03:16:04;;;;;;;8.50;1.80;;;17.50;76.20;;;17.82;51.85;95328.13;5068816;28;20877;-55
2022/06/15 03:18:32;;;;;;;3.83;1.87;;;17.50;76.10;;;17.82;52.15;95333.44;5076453;28;20466;-55
2022/06/15 03:20:59;;;;;;;2.27;2.07;;;17.50;76.00;;;17.80;52.50;95335.47;5075074;28;20863;-52
2022/06/15 03:23:27;;;;;;;7.10;2.30;;;17.50;76.20;;;17.78;52.34;95341.94;5077531;28;20446;-56
2022/06/15 03:25:56;;;;;;;4.50;1.63;;;17.40;76.20;;;17.76;52.05;95334.13;5073989;28;20507;-53
2022/06/15 03:28:23;;;;;;;9.83;1.73;;;17.40;76.30;;;17.76;52.40;95333.31;5078188;28;20966;-55
2022/06/15 03:30:51;;;;;;;8.83;2.83;;;17.40;76.50;;;17.74;52.18;95330.81;5066122;28;20474;-53
2022/06/15 03:33:18;;;;;;;6.30;2.10;;;17.40;76.80;;;17.75;52.16;95337.78;5081129;28;20461;-55
2022/06/15 03:35:46;;;;;;;6.50;2.30;;;17.40;77.00;;;17.75;52.24;95345.78;5076103;28;20556;-56
2022/06/15 03:38:13;;;;;;;17.93;3.03;;;17.40;77.00;;;17.76;52.36;95342.13;5074232;28;20464;-55
2022/06/15 03:40:42;;;;;;;5.00;3.17;;;17.40;77.00;;;17.79;52.47;95343.59;5071343;28;20476;-53
2022/06/15 03:43:11;;;;;;;4.13;2.60;;;17.40;77.10;;;17.81;52.68;95347.75;5077652;28;20476;-55
2022/06/15 03:45:38;;;;;;;4.87;2.20;;;17.40;77.10;;;17.82;52.28;95352.06;5070252;28;20475;-55
2022/06/15 03:48:06;;;;;;;10.37;3.60;;;17.40;77.10;;;17.83;52.62;95351.06;5081717;28;20458;-54
2022/06/15 03:50:34;;;;;;;3.67;2.30;;;17.50;77.20;;;17.86;52.58;95347.22;5067514;28;20790;-55
2022/06/15 03:53:01;;;;;;;3.97;1.87;;;17.50;77.20;;;17.87;53.09;95347.03;5082523;28;20454;-56
2022/06/15 03:55:30;;;;;;;8.40;2.47;;;17.50;77.80;;;17.88;52.85;95353.22;5068788;28;20490;-54
2022/06/15 03:57:57;;;;;;;2.40;2.20;;;17.50;78.30;;;17.88;53.16;95353.22;5072035;28;21908;-55
2022/06/15 04:00:28;;;;;;;2.30;2.13;;;17.50;78.60;;;17.89;53.36;95355.75;5075828;28;20484;-54
2022/06/15 04:02:55;;;;;;;2.80;1.77;;;17.50;78.90;;;17.94;53.72;95362.34;5066029;28;20450;-54
2022/06/15 04:05:24;;;;;;;4.83;2.50;;;17.50;79.30;;;17.97;53.70;95352.22;5072882;28;20497;-54
2022/06/15 04:10:36;;;;;;;2.50;2.30;;;17.60;79.50;;;17.99;53.76;95355.53;5079356;28;21075;-56
2022/06/15 04:13:03;;;;;;;8.77;2.80;;;17.60;79.80;;;18.01;53.68;95352.69;5081298;28;20492;-55
2022/06/15 04:15:32;;;;;;;3.47;2.27;;;17.60;80.10;;;18.03;54.31;95358.66;5083128;28;21043;-54
2022/06/15 04:17:59;;;;;;;13.20;3.50;;;17.60;80.50;;;18.02;54.09;95357.00;5075579;28;20461;-55
2022/06/15 04:20:33;;;;;;;4.43;3.10;;;17.60;80.80;;;18.03;54.58;95358.66;5081881;28;20462;-54
2022/06/15 04:23:01;;;;;;;8.87;2.17;;;17.60;81.10;;;18.03;55.19;95362.16;5082013;28;20820;-55
2022/06/15 04:25:29;;;;;;;5.27;2.50;;;17.70;82.00;;;18.02;54.94;95359.69;5072959;28;21042;-56
2022/06/15 04:27:56;;;;;;;14.33;3.50;;;17.60;82.00;;;18.02;55.45;95365.00;5082949;28;20973;-55
2022/06/15 04:30:24;;;;;;;3.47;3.00;;;17.60;82.40;;;18.02;55.18;95367.66;5077848;28;20486;-55
2022/06/15 04:32:53;;;;;;;5.80;2.40;;;17.60;83.60;;;18.03;55.45;95361.31;5070380;28;21191;-55
2022/06/15 04:35:20;;;;;;;2.90;2.50;;;17.60;83.30;;;18.07;55.61;95362.63;5079622;28;20474;-55
2022/06/15 04:37:48;;;;;;;5.70;2.43;;;17.70;83.30;;;18.10;55.54;95365.78;5076350;28;20982;-54
2022/06/15 04:40:15;;;;;;;6.53;3.00;;;17.70;83.40;;;18.14;55.37;95363.59;5076465;28;20493;-58
2022/06/15 04:42:43;;;;;;;7.70;2.93;;;17.70;83.10;;;18.20;55.38;95359.41;5072801;28;20742;-55
2022/06/15 04:45:11;;;;;;;2.00;1.90;;;17.80;83.10;;;18.25;55.19;95360.53;5071856;28;20858;-58
2022/06/15 04:47:39;;;;;;;3.60;2.43;;;17.90;83.30;;;18.34;55.21;95357.81;5051498;28;20470;-57
2022/06/15 04:50:11;;;;;;;2.53;2.33;;;17.90;82.50;;;18.40;55.06;95365.97;5043448;28;20579;-54
2022/06/15 04:52:40;;;;;;;6.10;1.83;;;18.00;82.40;;;18.45;54.98;95358.25;5064017;28;20454;-54
2022/06/15 04:55:08;;;;;;;3.00;2.07;;;18.00;82.40;;;18.50;54.39;95364.88;5078362;28;20484;-55
2022/06/15 04:57:36;;;;;;;3.23;2.53;;;18.10;82.20;;;18.53;54.55;95364.50;5077851;28;20461;-52
2022/06/15 05:00:05;;;;;;;5.63;2.37;;;18.10;82.60;;;18.57;54.81;95365.81;5066635;28;20968;-55
2022/06/15 05:02:33;;;;;;;5.30;2.60;;;18.10;82.50;;;18.59;54.53;95367.31;5068097;28;20523;-55
2022/06/15 05:05:00;;;;;;;3.73;2.70;;;18.20;82.40;;;18.62;55.13;95369.63;5067142;28;20483;-53
2022/06/15 05:07:29;;;;;;;57.67;11.40;;;18.20;82.60;;;18.68;54.79;95367.25;5076865;28;20447;-55
2022/06/15 05:09:56;;;;;;;96.33;14.17;;;18.30;82.70;;;18.78;54.67;95368.66;5072671;28;20486;-55
2022/06/15 05:12:24;;;;;;;45.30;11.30;;;18.30;83.00;;;18.92;54.53;95380.44;5081831;28;20456;-56
2022/06/15 05:14:51;;;;;;;35.77;7.70;;;18.50;83.10;;;19.10;54.54;95376.59;5081516;28;21198;-55
2022/06/15 05:17:20;;;;;;;25.73;8.83;;;18.60;83.30;;;19.31;54.78;95383.94;5077401;28;20925;-55
2022/06/15 05:19:47;;;;;;;2.80;2.30;;;18.80;83.10;;;19.51;54.04;95378.88;5073468;28;20481;-56
2022/06/15 05:22:15;;;;;;;45.03;8.47;;;19.00;82.50;;;19.69;53.84;95382.03;5084351;28;20456;-56
2022/06/15 05:24:44;;;;;;;15.23;4.67;;;19.20;82.00;;;19.91;53.44;95383.97;5078147;28;20541;-55
2022/06/15 05:27:11;;;;;;;17.27;3.50;;;19.40;81.30;;;20.10;53.12;95386.09;5080694;28;20450;-55
2022/06/15 05:29:38;;;;;;;9.30;4.13;;;19.60;81.10;;;20.32;52.46;95388.81;5082973;28;20470;-55
2022/06/15 05:32:07;;;;;;;5.30;2.70;;;19.80;80.40;;;20.51;52.59;95388.22;5069245;28;20873;-56
2022/06/15 05:34:35;;;;;;;10.50;3.20;;;20.00;80.10;;;20.70;51.91;95386.78;5068926;28;20607;-55
2022/06/15 05:37:02;;;;;;;10.70;3.20;;;20.10;79.10;;;20.90;51.76;95394.19;5076244;28;20481;-56
2022/06/15 05:39:29;;;;;;;6.90;3.53;;;20.30;79.00;;;21.08;51.43;95394.53;5083285;28;20442;-53
2022/06/15 05:41:58;;;;;;;10.17;2.97;;;20.50;78.40;;;21.26;50.87;95391.41;5080623;28;20930;-57
2022/06/15 05:44:29;;;;;;;5.37;2.67;;;20.70;77.50;;;21.44;50.56;95388.28;5076558;28;20442;-54
2022/06/15 05:46:57;;;;;;;4.87;3.20;;;20.90;76.80;;;21.61;50.23;95388.84;5078590;28;20442;-55
2022/06/15 05:49:25;;;;;;;6.30;3.07;;;21.00;76.60;;;21.74;50.17;95385.41;5076137;28;20535;-55
2022/06/15 05:51:52;;;;;;;4.97;3.00;;;21.10;76.10;;;21.93;50.11;95381.19;5076393;28;20515;-55
2022/06/15 05:54:19;;;;;;;4.60;2.50;;;21.30;75.70;;;22.07;50.03;95378.56;5081149;28;20454;-54
2022/06/15 05:56:47;;;;;;;10.63;3.00;;;21.50;75.50;;;22.17;49.27;95385.22;5077807;28;20500;-58
2022/06/15 05:59:16;;;;;;;9.10;3.47;;;21.60;75.00;;;22.30;49.33;95388.97;5081536;28;20861;-56
2022/06/15 06:01:43;;;;;;;5.90;3.17;;;21.70;74.00;;;22.45;48.78;95392.38;5076350;28;20450;-56
2022/06/15 06:04:13;;;;;;;4.90;2.93;;;21.80;73.00;;;22.60;48.17;95394.88;5075916;28;20454;-57
2022/06/15 06:06:40;;;;;;;7.53;2.63;;;22.00;72.70;;;22.74;48.24;95395.72;5071951;28;20984;-55
2022/06/15 06:09:08;;;;;;;2.63;2.33;;;22.10;71.50;;;22.90;48.03;95399.91;5084211;28;20439;-55
2022/06/15 06:11:35;;;;;;;10.23;2.87;;;22.30;71.30;;;22.99;46.70;95396.00;5070797;28;20502;-56
2022/06/15 06:14:02;;;;;;;4.00;2.20;;;22.30;70.00;;;23.08;46.48;95399.28;5078334;28;20837;-54
2022/06/15 06:16:31;;;;;;;10.20;3.90;;;22.50;69.30;;;23.19;46.45;95400.56;5070287;28;20487;-54
2022/06/15 06:18:59;;;;;;;3.93;2.60;;;22.50;69.30;;;23.31;46.35;95409.66;5073796;28;20921;-55
2022/06/15 06:21:26;;;;;;;5.00;2.73;;;22.70;69.10;;;23.39;46.42;95406.81;5079909;28;20484;-55
2022/06/15 06:23:54;;;;;;;3.47;2.10;;;22.80;67.50;;;23.46;45.61;95404.09;5078437;28;20463;-56
2022/06/15 06:26:23;;;;;;;26.00;2.50;;;22.80;66.80;;;23.53;45.49;95404.09;5070593;28;20478;-56
2022/06/15 06:28:50;;;;;;;5.60;2.33;;;22.90;65.70;;;23.61;45.68;95409.25;5064693;28;20462;-55
2022/06/15 06:31:20;;;;;;;5.13;2.10;;;23.00;66.20;;;23.72;44.31;95403.25;5070107;28;20475;-56
2022/06/15 06:33:49;;;;;;;2.93;2.50;;;23.10;65.40;;;23.85;45.16;95415.84;5063634;28;20453;-56
2022/06/15 06:36:19;;;;;;;4.37;2.23;;;23.20;64.70;;;23.95;44.86;95405.53;5071237;28;20497;-54
2022/06/15 06:38:46;;;;;;;11.87;1.70;;;23.30;64.10;;;24.06;43.84;95405.88;5073144;28;20446;-54
2022/06/15 06:41:16;;;;;;;3.83;2.30;;;23.40;62.40;;;24.14;43.61;95411.06;5070137;28;20533;-54
2022/06/15 06:43:43;;;;;;;10.23;2.50;;;23.50;62.60;;;24.25;43.43;95410.38;5073705;28;20505;-54
2022/06/15 06:46:10;;;;;;;2.60;2.07;;;23.60;62.80;;;24.36;43.25;95405.41;5071252;28;20475;-56
2022/06/15 06:48:38;;;;;;;12.10;2.43;;;23.70;62.10;;;24.44;42.62;95407.84;5073311;28;20716;-55
2022/06/15 06:51:07;;;;;;;5.43;2.03;;;23.80;61.00;;;24.54;42.95;95413.59;5072271;28;20907;-55
2022/06/15 06:53:35;;;;;;;4.83;2.87;;;23.90;61.60;;;24.63;43.65;95409.66;5077003;28;20465;-56
2022/06/15 06:56:03;;;;;;;3.20;2.43;;;24.00;61.90;;;24.73;43.29;95394.91;5062203;28;20530;-54
2022/06/15 06:58:30;;;;;;;5.57;2.20;;;24.10;60.90;;;24.77;43.23;95396.13;5061852;28;21010;-55
2022/06/15 07:00:57;;;;;;;2.80;2.00;;;24.10;61.10;;;24.83;42.78;95398.78;5069145;28;20479;-54
2022/06/15 07:03:25;;;;;;;2.30;1.80;;;24.20;61.30;;;24.90;43.44;95406.81;5069512;28;20471;-56
2022/06/15 07:05:52;;;;;;;6.20;1.70;;;24.30;61.30;;;25.00;42.80;95409.84;5070381;28;20481;-56
2022/06/15 07:08:21;;;;;;;3.47;2.50;;;24.30;61.80;;;25.08;42.41;95408.75;5067429;28;20468;-56
2022/06/15 07:10:48;;;;;;;4.60;2.13;;;24.40;60.70;;;25.12;42.40;95404.59;5061309;28;20479;-56
2022/06/15 07:13:16;;;;;;;5.63;2.13;;;24.50;59.60;;;25.20;42.88;95406.19;5062678;28;20454;-56
2022/06/15 07:15:43;;;;;;;7.50;2.03;;;24.50;60.20;;;25.26;42.38;95410.69;5059497;28;21168;-55
2022/06/15 07:18:11;;;;;;;2.60;1.83;;;24.60;59.40;;;25.34;41.96;95402.38;5071873;28;20509;-54
2022/06/15 07:20:38;;;;;;;6.20;2.77;;;24.70;58.40;;;25.43;41.95;95405.63;5066741;28;20477;-60
2022/06/15 07:23:06;;;;;;;6.97;2.03;;;24.80;58.50;;;25.53;41.49;95405.13;5071129;28;20449;-56
2022/06/15 07:25:35;;;;;;;4.20;2.40;;;24.80;57.70;;;25.59;41.01;95404.25;5068509;28;20809;-55
2022/06/15 07:28:03;;;;;;;37.27;2.70;;;24.90;58.10;;;25.70;41.06;95413.47;5070598;28;20582;-55
2022/06/15 07:30:30;;;;;;;10.43;2.20;;;25.00;58.40;;;25.81;41.40;95410.06;5068890;28;20986;-55
2022/06/15 07:32:58;;;;;;;4.13;1.87;;;25.10;58.00;;;25.92;41.09;95405.81;5068854;28;20473;-54
2022/06/15 07:35:27;;;;;;;11.30;2.67;;;25.20;57.50;;;26.02;41.08;95410.72;5070353;28;20490;-55
2022/06/15 07:37:55;;;;;;;2.23;1.87;;;25.30;57.50;;;26.12;40.57;95411.03;5083201;28;20524;-53
2022/06/15 07:40:23;;;;;;;3.53;1.67;;;25.40;57.40;;;26.23;40.34;95415.66;5075555;28;20836;-55
2022/06/15 07:42:52;;;;;;;3.23;2.00;;;25.50;56.60;;;26.33;40.22;95412.44;5084579;28;20976;-54
2022/06/15 07:45:20;;;;;;;12.50;2.43;;;25.60;56.50;;;26.42;40.29;95415.66;5071796;28;20475;-55
2022/06/15 07:50:33;;;;;;;6.00;2.30;;;25.80;56.10;;;26.62;39.66;95412.72;5068971;28;21016;-56
2022/06/15 07:53:01;;;;;;;16.33;2.83;;;25.90;55.40;;;26.66;39.88;95419.31;5066050;28;20912;-55
2022/06/15 07:55:31;;;;;;;11.50;3.30;;;26.00;55.70;;;26.69;40.09;95413.47;5064678;28;20480;-56
2022/06/15 07:58:00;;;;;;;14.37;2.20;;;26.00;55.80;;;26.75;39.88;95406.34;5069646;28;20496;-57
2022/06/15 08:00:28;;;;;;;7.73;2.03;;;26.10;55.60;;;26.74;39.60;95410.09;5070086;28;20499;-55
2022/06/15 08:02:55;;;;;;;1.60;1.50;;;26.10;55.10;;;26.81;38.98;95411.66;5063855;28;20469;-55
2022/06/15 08:05:23;;;;;;;2.20;2.00;;;26.10;54.90;;;26.86;38.96;95405.56;5067642;28;20494;-55
2022/06/15 08:07:50;;;;;;;5.13;2.03;;;26.10;54.30;;;26.88;39.26;95408.88;5068662;28;20448;-56
2022/06/15 08:10:20;;;;;;;7.70;2.33;;;26.20;54.90;;;26.90;39.33;95414.88;5075131;28;20466;-55
2022/06/15 08:12:47;;;;;;;7.87;2.40;;;26.20;54.80;;;26.97;38.79;95407.50;5078327;28;20446;-55
2022/06/15 08:15:16;;;;;;;6.10;2.30;;;26.30;54.10;;;27.09;38.60;95404.00;5084636;28;20880;-55
2022/06/15 08:17:46;;;;;;;4.20;2.10;;;26.40;54.00;;;27.21;37.91;95404.88;5077729;28;20962;-56
2022/06/15 08:20:16;;;;;;;7.83;1.60;;;26.50;53.10;;;27.32;38.42;95414.91;5082225;28;21050;-55
2022/06/15 08:22:46;;;;;;;3.50;1.87;;;26.60;53.70;;;27.42;38.49;95411.66;5068492;28;21009;-55
2022/06/15 08:25:15;;;;;;;9.30;2.00;;;26.70;53.50;;;27.53;37.88;95416.25;5051958;28;21061;-56
2022/06/15 08:27:42;;;;;;;1.90;1.70;;;26.80;52.90;;;27.65;37.51;95407.31;5063973;28;20462;-55
2022/06/15 08:30:12;;;;;;;16.70;2.00;;;26.90;52.40;;;27.77;38.22;95407.31;5073969;28;20500;-55
2022/06/15 08:32:40;;;;;;;5.50;1.93;;;27.10;53.00;;;27.89;37.83;95406.25;5067436;28;20452;-55
2022/06/15 08:35:09;;;;;;;3.43;2.17;;;27.20;52.30;;;28.00;37.69;95401.13;5069555;28;20470;-56
2022/06/15 08:37:36;;;;;;;6.07;2.30;;;27.30;51.90;;;28.15;37.63;95408.72;5065997;28;21102;-56
2022/06/15 08:40:05;;;;;;;4.37;2.00;;;27.40;52.20;;;28.25;37.11;95414.38;5071289;28;20466;-53
2022/06/15 08:42:40;;;;;;;3.83;1.70;;;27.60;51.70;;;28.32;37.15;95414.22;5061374;28;20545;-56
2022/06/15 08:45:12;;;;;;;11.30;1.97;;;27.60;51.50;;;28.43;36.74;95402.59;5074395;28;21016;-54
2022/06/15 08:48:12;;;;;;;11.40;2.50;;;27.70;51.60;;;28.59;36.61;95411.84;5074497;28;20513;-56
2022/06/15 08:50:43;;;;;;;2.97;1.70;;;27.90;51.60;;;28.73;37.46;95409.69;5056671;28;20498;-54
2022/06/15 08:53:15;;;;;;;3.87;1.83;;;28.00;51.40;;;28.88;36.79;95415.41;5067252;28;20496;-57
2022/06/15 08:55:46;;;;;;;2.17;2.00;;;28.20;51.10;;;29.00;36.81;95417.22;5069483;28;20868;-55
2022/06/15 08:58:20;;;;;;;9.20;1.80;;;28.30;50.50;;;29.07;36.59;95409.78;5059135;28;20505;-56
2022/06/15 09:00:47;;;;;;;1.90;1.70;;;28.40;50.60;;;29.16;35.89;95408.34;5064807;28;20508;-56
2022/06/15 09:03:24;;;;;;;3.57;1.57;;;28.40;50.30;;;29.28;36.03;95408.28;5063677;28;20450;-55
2022/06/15 09:06:00;;;;;;;2.13;1.93;;;28.50;49.80;;;29.36;34.61;95410.59;5075573;28;20558;-55
2022/06/15 09:09:00;;;;;;;10.13;1.83;;;28.60;49.20;;;29.39;34.87;95412.81;5072629;28;20532;-55
2022/06/15 09:11:40;;;;;;;2.80;2.50;;;28.70;48.40;;;29.40;34.83;95397.38;5067272;28;20486;-55
2022/06/15 09:14:21;;;;;;;8.10;2.90;;;28.80;49.00;;;29.43;35.00;95405.03;5080072;28;20445;-54
2022/06/15 09:16:54;;;;;;;7.73;3.10;;;28.80;47.90;;;29.42;35.08;95400.66;5073730;28;20458;-56
2022/06/15 09:19:27;;;;;;;1.33;1.23;;;28.80;48.30;;;29.43;35.83;95405.03;5077435;28;20664;-55
2022/06/15 09:21:58;;;;;;;4.03;2.43;;;28.80;48.80;;;29.45;35.17;95401.00;5076887;28;20455;-59
2022/06/15 09:24:29;;;;;;;7.33;1.90;;;28.80;48.40;;;29.44;34.74;95399.34;5078295;28;20511;-54
2022/06/15 09:27:00;;;;;;;5.63;2.80;;;28.80;48.20;;;29.45;34.78;95400.16;5073102;28;20969;-56
2022/06/15 09:29:31;;;;;;;6.53;2.10;;;28.80;48.20;;;29.46;34.74;95396.41;5067340;28;20457;-55
2022/06/15 09:32:01;;;;;;;3.77;2.00;;;28.80;47.80;;;29.45;34.43;95395.59;5065218;28;20192;-55
2022/06/15 09:34:39;;;;;;;4.63;2.37;;;28.80;47.20;;;29.48;35.23;95400.50;5073874;28;20449;-54
2022/06/15 09:37:11;;;;;;;11.67;2.77;;;28.80;48.80;;;29.52;34.66;95400.84;5054852;28;20223;-55
2022/06/15 09:39:38;;;;;;;6.03;1.70;;;28.80;48.20;;;29.50;35.03;95397.56;5080073;28;20469;-55
2022/06/15 09:42:11;;;;;;;2.20;1.77;;;28.90;47.30;;;29.48;34.82;95402.38;5087174;28;20936;-54
2022/06/15 09:44:44;;;;;;;3.47;2.20;;;28.80;47.30;;;29.43;33.53;95397.69;5063830;28;20478;-53
2022/06/15 09:47:19;;;;;;;8.97;3.10;;;28.80;46.10;;;29.39;34.52;95398.44;5081564;28;20431;-56
2022/06/15 09:49:55;;;;;;;16.60;1.67;;;28.80;46.80;;;29.28;33.27;95395.56;5077792;28;20479;-57
2022/06/15 09:52:30;;;;;;;6.70;1.70;;;28.70;45.70;;;29.23;34.25;95392.75;5071546;28;20938;-53
2022/06/15 09:55:07;;;;;;;4.83;2.00;;;28.70;46.80;;;29.21;33.91;95394.91;5070769;28;20480;-55
2022/06/15 09:57:35;;;;;;;4.03;3.20;;;28.60;46.60;;;29.18;35.86;95389.94;5074562;28;20973;-54
2022/06/15 10:00:03;;;;;;;5.77;2.07;;;28.50;48.70;;;29.21;34.38;95389.47;5080634;28;20908;-53
2022/06/15 10:02:32;;;;;;;3.43;3.13;;;28.50;47.10;;;29.22;34.23;95383.00;5074917;28;20453;-56
2022/06/15 10:05:02;;;;;;;6.10;2.97;;;28.60;47.00;;;29.22;35.00;95388.41;5080003;28;21046;-56
2022/06/15 10:07:32;;;;;;;7.67;4.40;;;28.60;47.00;;;29.18;35.15;95381.81;5079798;28;20475;-57
2022/06/15 10:10:04;;;;;;;5.17;3.90;;;28.50;47.20;;;29.15;34.34;95387.72;5075543;28;20496;-56
2022/06/15 10:13:03;;;;;;;6.97;3.97;;;28.50;47.40;;;29.11;35.29;95378.41;5074459;28;20458;-55
2022/06/15 10:15:50;;;;;;;11.93;3.70;;;28.50;47.50;;;29.06;34.46;95381.06;5081594;28;20477;-56
2022/06/15 10:18:22;;;;;;;22.27;7.97;;;28.50;46.90;;;29.04;35.22;95386.72;5074130;28;20234;-54
2022/06/15 10:21:04;;;;;;;2.17;2.07;;;28.40;48.50;;;29.07;34.98;95377.28;5071998;28;20481;-55
2022/06/15 10:23:50;;;;;;;2.43;2.10;;;28.40;48.50;;;29.09;35.26;95384.09;5066634;28;20560;-56
2022/06/15 10:26:34;;;;;;;9.33;2.40;;;28.40;48.10;;;29.13;35.40;95381.72;5080693;28;20793;-55
2022/06/15 10:29:23;;;;;;;1.80;1.70;;;28.50;48.20;;;29.16;34.86;95381.25;5075290;28;20443;-55
2022/06/15 10:32:06;;;;;;;3.20;3.00;;;28.50;48.30;;;29.18;34.65;95370.97;5082096;28;20442;-55
2022/06/15 10:34:35;;;;;;;2.80;1.97;;;28.50;48.10;;;29.18;35.49;95375.56;5080578;28;20230;-58
2022/06/15 10:37:08;;;;;;;1.80;1.70;;;28.50;48.00;;;29.21;35.18;95367.81;5084356;28;20485;-53